sensor_id;sensor_type;location;lat;lon;timestamp;pressure;altitude;pressure_sealevel;temperature;humidity
19795;BME280;10057;59.402;17.866;2024-01-25T00:01:38;99565.44;;;1.35;88.77
19795;BME280;10057;59.402;17.866;2024-01-25T00:04:05;99580.28;;;1.33;88.87
19795;BME280;10057;59.402;17.866;2024-01-25T00:06:32;99582.97;;;1.29;88.74
19795;BME280;10057;59.402;17.866;2024-01-25T00:08:59;99583.88;;;1.26;88.88
19795;BME280;10057;59.402;17.866;2024-01-25T00:11:27;99601.38;;;1.24;88.65
19795;BME280;10057;59.402;17.866;2024-01-25T00:13:58;99624.06;;;1.21;88.79
19795;BME280;10057;59.402;17.866;2024-01-25T00:16:24;99639.75;;;1.19;88.93
19795;BME280;10057;59.402;17.866;2024-01-25T00:18:51;99625.00;;;1.16;88.90
19795;BME280;10057;59.402;17.866;2024-01-25T00:21:18;99636.31;;;1.15;88.61
19795;BME280;10057;59.402;17.866;2024-01-25T00:23:45;99635.50;;;1.12;88.84
19795;BME280;10057;59.402;17.866;2024-01-25T00:26:12;99652.03;;;1.14;89.19
19795;BME280;10057;59.402;17.866;2024-01-25T00:28:39;99645.09;;;1.13;89.15
19795;BME280;10057;59.402;17.866;2024-01-25T00:31:05;99650.31;;;1.13;88.75
19795;BME280;10057;59.402;17.866;2024-01-25T00:33:32;99668.63;;;1.13;89.04
19795;BME280;10057;59.402;17.866;2024-01-25T00:35:59;99674.66;;;1.15;89.13
19795;BME280;10057;59.402;17.866;2024-01-25T00:38:26;99678.22;;;1.11;88.77
19795;BME280;10057;59.402;17.866;2024-01-25T00:40:53;99685.19;;;1.09;88.97
19795;BME280;10057;59.402;17.866;2024-01-25T00:43:20;99696.50;;;1.09;89.04
19795;BME280;10057;59.402;17.866;2024-01-25T00:45:47;99702.63;;;1.08;89.08
19795;BME280;10057;59.402;17.866;2024-01-25T00:48:14;99719.16;;;1.10;88.61
19795;BME280;10057;59.402;17.866;2024-01-25T00:50:41;99731.31;;;1.13;88.84
19795;BME280;10057;59.402;17.866;2024-01-25T00:53:08;99738.28;;;1.11;89.13
19795;BME280;10057;59.402;17.866;2024-01-25T00:55:35;99736.59;;;1.08;89.21
19795;BME280;10057;59.402;17.866;2024-01-25T00:58:02;99752.25;;;1.10;89.06
19795;BME280;10057;59.402;17.866;2024-01-25T01:00:30;99758.34;;;1.09;89.04
19795;BME280;10057;59.402;17.866;2024-01-25T01:02:57;99767.94;;;1.08;89.27
19795;BME280;10057;59.402;17.866;2024-01-25T01:05:26;99765.31;;;1.08;89.18
19795;BME280;10057;59.402;17.866;2024-01-25T01:07:53;99774.91;;;1.08;89.18
19795;BME280;10057;59.402;17.866;2024-01-25T01:10:20;99781.94;;;1.04;89.07
19795;BME280;10057;59.402;17.866;2024-01-25T01:12:47;99790.63;;;1.06;89.31
19795;BME280;10057;59.402;17.866;2024-01-25T01:15:14;99795.84;;;1.06;89.08
19795;BME280;10057;59.402;17.866;2024-01-25T01:17:40;99793.22;;;1.06;89.31
19795;BME280;10057;59.402;17.866;2024-01-25T01:20:07;99799.31;;;1.05;88.84
19795;BME280;10057;59.402;17.866;2024-01-25T01:22:34;99801.97;;;1.02;88.98
19795;BME280;10057;59.402;17.866;2024-01-25T01:25:01;99822.84;;;1.02;89.10
19795;BME280;10057;59.402;17.866;2024-01-25T01:27:28;99831.59;;;1.01;89.45
19795;BME280;10057;59.402;17.866;2024-01-25T01:29:54;99842.06;;;0.98;89.21
19795;BME280;10057;59.402;17.866;2024-01-25T01:32:21;99847.34;;;0.97;89.26
19795;BME280;10057;59.402;17.866;2024-01-25T01:34:48;99859.56;;;0.93;88.73
19795;BME280;10057;59.402;17.866;2024-01-25T01:37:15;99850.00;;;0.89;89.09
19795;BME280;10057;59.402;17.866;2024-01-25T01:39:42;99863.06;;;0.90;89.34
19795;BME280;10057;59.402;17.866;2024-01-25T01:42:09;99874.41;;;0.89;89.23
19795;BME280;10057;59.402;17.866;2024-01-25T01:44:35;99866.59;;;0.86;89.05
19795;BME280;10057;59.402;17.866;2024-01-25T01:47:02;99887.50;;;0.86;89.34
19795;BME280;10057;59.402;17.866;2024-01-25T01:49:29;99904.00;;;0.88;89.29
19795;BME280;10057;59.402;17.866;2024-01-25T01:51:56;99889.25;;;0.86;89.33
19795;BME280;10057;59.402;17.866;2024-01-25T01:54:24;99900.59;;;0.83;89.32
19795;BME280;10057;59.402;17.866;2024-01-25T01:56:51;99909.28;;;0.84;89.08
19795;BME280;10057;59.402;17.866;2024-01-25T01:59:18;99906.63;;;0.85;89.13
19795;BME280;10057;59.402;17.866;2024-01-25T02:01:47;99912.78;;;0.83;89.18
19795;BME280;10057;59.402;17.866;2024-01-25T02:04:13;99928.44;;;0.81;89.20
19795;BME280;10057;59.402;17.866;2024-01-25T02:06:42;99946.72;;;0.83;89.24
19795;BME280;10057;59.402;17.866;2024-01-25T02:09:09;99931.94;;;0.80;89.19
19795;BME280;10057;59.402;17.866;2024-01-25T02:11:36;99930.19;;;0.81;89.28
19795;BME280;10057;59.402;17.866;2024-01-25T02:14:03;99943.25;;;0.82;89.54
19795;BME280;10057;59.402;17.866;2024-01-25T02:16:30;99954.56;;;0.83;89.24
19795;BME280;10057;59.402;17.866;2024-01-25T02:18:57;99971.13;;;0.80;89.37
19795;BME280;10057;59.402;17.866;2024-01-25T02:21:24;99972.88;;;0.78;89.42
19795;BME280;10057;59.402;17.866;2024-01-25T02:23:51;99965.06;;;0.77;89.00
19795;BME280;10057;59.402;17.866;2024-01-25T02:26:18;99986.84;;;0.74;89.36
19795;BME280;10057;59.402;17.866;2024-01-25T02:28:44;99985.94;;;0.75;89.35
19795;BME280;10057;59.402;17.866;2024-01-25T02:31:11;100013.81;;;0.76;89.65
19795;BME280;10057;59.402;17.866;2024-01-25T02:33:38;99998.13;;;0.78;89.25
19795;BME280;10057;59.402;17.866;2024-01-25T02:36:05;99992.88;;;0.78;89.50
19795;BME280;10057;59.402;17.866;2024-01-25T02:38:32;100007.66;;;0.82;89.56
19795;BME280;10057;59.402;17.866;2024-01-25T02:40:58;100015.47;;;0.83;89.69
19795;BME280;10057;59.402;17.866;2024-01-25T02:43:25;100032.03;;;0.82;89.34
19795;BME280;10057;59.402;17.866;2024-01-25T02:45:53;100021.53;;;0.87;89.40
19795;BME280;10057;59.402;17.866;2024-01-25T02:48:20;100032.88;;;0.86;89.31
19795;BME280;10057;59.402;17.866;2024-01-25T02:50:47;100035.47;;;0.87;89.56
19795;BME280;10057;59.402;17.866;2024-01-25T02:53:14;100038.91;;;0.91;89.50
19795;BME280;10057;59.402;17.866;2024-01-25T02:55:40;100053.69;;;0.92;89.33
19795;BME280;10057;59.402;17.866;2024-01-25T02:58:07;100058.94;;;0.90;89.51
19795;BME280;10057;59.402;17.866;2024-01-25T03:00:34;100069.38;;;0.92;89.49
19795;BME280;10057;59.402;17.866;2024-01-25T03:03:00;100075.50;;;0.89;89.14
19795;BME280;10057;59.402;17.866;2024-01-25T03:05:27;100085.09;;;0.86;89.00
19795;BME280;10057;59.402;17.866;2024-01-25T03:07:54;100087.72;;;0.81;89.22
19795;BME280;10057;59.402;17.866;2024-01-25T03:10:21;100086.88;;;0.81;89.26
19795;BME280;10057;59.402;17.866;2024-01-25T03:12:47;100106.94;;;0.79;89.03
19795;BME280;10057;59.402;17.866;2024-01-25T03:15:14;100119.09;;;0.78;89.41
19795;BME280;10057;59.402;17.866;2024-01-25T03:17:41;100113.88;;;0.78;89.64
19795;BME280;10057;59.402;17.866;2024-01-25T03:20:09;100121.69;;;0.78;89.47
19795;BME280;10057;59.402;17.866;2024-01-25T03:22:36;100123.47;;;0.79;89.69
19795;BME280;10057;59.402;17.866;2024-01-25T03:25:03;100128.66;;;0.81;89.71
19795;BME280;10057;59.402;17.866;2024-01-25T03:27:30;100141.72;;;0.82;89.49
19795;BME280;10057;59.402;17.866;2024-01-25T03:29:57;100142.56;;;0.81;89.34
19795;BME280;10057;59.402;17.866;2024-01-25T03:32:23;100139.97;;;0.78;89.53
19795;BME280;10057;59.402;17.866;2024-01-25T03:34:50;100164.38;;;0.77;89.49
19795;BME280;10057;59.402;17.866;2024-01-25T03:37:17;100166.97;;;0.77;89.25
19795;BME280;10057;59.402;17.866;2024-01-25T03:39:47;100166.09;;;0.75;89.38
19795;BME280;10057;59.402;17.866;2024-01-25T03:42:14;100177.44;;;0.76;89.40
19795;BME280;10057;59.402;17.866;2024-01-25T03:44:40;100201.81;;;0.76;89.48
19795;BME280;10057;59.402;17.866;2024-01-25T03:47:08;100194.84;;;0.75;89.41
19795;BME280;10057;59.402;17.866;2024-01-25T03:49:35;100194.00;;;0.73;89.39
19795;BME280;10057;59.402;17.866;2024-01-25T03:52:05;100206.16;;;0.74;89.40
19795;BME280;10057;59.402;17.866;2024-01-25T03:54:32;100213.13;;;0.74;89.27
19795;BME280;10057;59.402;17.866;2024-01-25T03:56:59;100213.13;;;0.75;89.30
19795;BME280;10057;59.402;17.866;2024-01-25T03:59:26;100217.47;;;0.75;89.97
19795;BME280;10057;59.402;17.866;2024-01-25T04:01:53;100228.78;;;0.75;89.42
19795;BME280;10057;59.402;17.866;2024-01-25T04:04:20;100230.53;;;0.75;89.44
19795;BME280;10057;59.402;17.866;2024-01-25T04:06:47;100234.03;;;0.74;89.47
19795;BME280;10057;59.402;17.866;2024-01-25T04:09:14;100231.38;;;0.75;89.54
19795;BME280;10057;59.402;17.866;2024-01-25T04:11:41;100237.50;;;0.74;89.51
19795;BME280;10057;59.402;17.866;2024-01-25T04:14:08;100247.06;;;0.77;89.56
19795;BME280;10057;59.402;17.866;2024-01-25T04:16:35;100247.94;;;0.76;89.37
19795;BME280;10057;59.402;17.866;2024-01-25T04:19:02;100257.50;;;0.75;89.32
19795;BME280;10057;59.402;17.866;2024-01-25T04:21:29;100264.50;;;0.73;89.17
19795;BME280;10057;59.402;17.866;2024-01-25T04:23:56;100272.31;;;0.73;89.36
19795;BME280;10057;59.402;17.866;2024-01-25T04:26:23;100287.13;;;0.73;89.36
19795;BME280;10057;59.402;17.866;2024-01-25T04:28:50;100284.53;;;0.69;89.39
19795;BME280;10057;59.402;17.866;2024-01-25T04:31:17;100294.09;;;0.67;89.23
19795;BME280;10057;59.402;17.866;2024-01-25T04:33:44;100295.84;;;0.68;89.21
19795;BME280;10057;59.402;17.866;2024-01-25T04:36:14;100307.16;;;0.69;89.20
19795;BME280;10057;59.402;17.866;2024-01-25T04:38:41;100318.47;;;0.65;89.29
19795;BME280;10057;59.402;17.866;2024-01-25T04:41:08;100313.25;;;0.65;89.43
19795;BME280;10057;59.402;17.866;2024-01-25T04:43:35;100315.88;;;0.63;89.57
19795;BME280;10057;59.402;17.866;2024-01-25T04:46:05;100328.91;;;0.65;89.52
19795;BME280;10057;59.402;17.866;2024-01-25T04:48:32;100337.63;;;0.64;89.37
19795;BME280;10057;59.402;17.866;2024-01-25T04:50:59;100361.16;;;0.62;89.21
19795;BME280;10057;59.402;17.866;2024-01-25T04:53:26;100361.13;;;0.58;89.04
19795;BME280;10057;59.402;17.866;2024-01-25T04:55:54;100361.13;;;0.58;89.16
19795;BME280;10057;59.402;17.866;2024-01-25T04:58:22;100373.34;;;0.56;89.25
19795;BME280;10057;59.402;17.866;2024-01-25T05:00:49;100386.41;;;0.53;89.16
19795;BME280;10057;59.402;17.866;2024-01-25T05:03:18;100382.91;;;0.51;89.32
19795;BME280;10057;59.402;17.866;2024-01-25T05:05:45;100381.19;;;0.50;89.48
19795;BME280;10057;59.402;17.866;2024-01-25T05:08:12;100398.56;;;0.47;89.37
19795;BME280;10057;59.402;17.866;2024-01-25T05:10:40;100401.19;;;0.51;89.37
19795;BME280;10057;59.402;17.866;2024-01-25T05:13:07;100395.13;;;0.52;89.41
19795;BME280;10057;59.402;17.866;2024-01-25T05:15:34;100423.81;;;0.52;89.44
19795;BME280;10057;59.402;17.866;2024-01-25T05:18:02;100417.72;;;0.46;89.23
19795;BME280;10057;59.402;17.866;2024-01-25T05:20:29;100426.41;;;0.50;89.37
19795;BME280;10057;59.402;17.866;2024-01-25T05:23:01;100430.75;;;0.51;89.40
19795;BME280;10057;59.402;17.866;2024-01-25T05:25:28;100436.00;;;0.50;89.60
19795;BME280;10057;59.402;17.866;2024-01-25T05:27:56;100441.22;;;0.50;89.42
19795;BME280;10057;59.402;17.866;2024-01-25T05:30:24;100458.63;;;0.46;89.33
19795;BME280;10057;59.402;17.866;2024-01-25T05:32:51;100457.75;;;0.42;89.14
19795;BME280;10057;59.402;17.866;2024-01-25T05:35:20;100446.44;;;0.40;89.42
19795;BME280;10057;59.402;17.866;2024-01-25T05:37:47;100458.63;;;0.41;89.47
19795;BME280;10057;59.402;17.866;2024-01-25T05:40:14;100456.88;;;0.43;89.44
19795;BME280;10057;59.402;17.866;2024-01-25T05:42:41;100462.09;;;0.43;89.45
19795;BME280;10057;59.402;17.866;2024-01-25T05:45:08;100467.34;;;0.45;89.34
19795;BME280;10057;59.402;17.866;2024-01-25T05:47:35;100473.41;;;0.47;89.85
19795;BME280;10057;59.402;17.866;2024-01-25T05:50:03;100475.16;;;0.46;89.51
19795;BME280;10057;59.402;17.866;2024-01-25T05:52:31;100486.47;;;0.49;89.60
19795;BME280;10057;59.402;17.866;2024-01-25T05:54:58;100472.56;;;0.48;89.70
19795;BME280;10057;59.402;17.866;2024-01-25T05:57:30;100489.94;;;0.47;89.55
19795;BME280;10057;59.402;17.866;2024-01-25T05:59:57;100506.47;;;0.43;89.58
19795;BME280;10057;59.402;17.866;2024-01-25T06:02:24;100502.13;;;0.39;89.35
19795;BME280;10057;59.402;17.866;2024-01-25T06:04:51;100505.59;;;0.35;89.22
19795;BME280;10057;59.402;17.866;2024-01-25T06:07:18;100513.41;;;0.34;89.17
19795;BME280;10057;59.402;17.866;2024-01-25T06:09:47;100514.31;;;0.31;89.67
19795;BME280;10057;59.402;17.866;2024-01-25T06:12:13;100522.97;;;0.30;89.57
19795;BME280;10057;59.402;17.866;2024-01-25T06:14:41;100536.03;;;0.29;89.46
19795;BME280;10057;59.402;17.866;2024-01-25T06:17:07;100545.59;;;0.25;89.46
19795;BME280;10057;59.402;17.866;2024-01-25T06:19:34;100542.13;;;0.25;89.41
19795;BME280;10057;59.402;17.866;2024-01-25T06:22:01;100548.22;;;0.25;89.81
19795;BME280;10057;59.402;17.866;2024-01-25T06:24:29;100553.44;;;0.28;89.68
19795;BME280;10057;59.402;17.866;2024-01-25T06:26:56;100575.16;;;0.27;89.62
19795;BME280;10057;59.402;17.866;2024-01-25T06:29:23;100577.78;;;0.24;89.83
19795;BME280;10057;59.402;17.866;2024-01-25T06:31:50;100596.06;;;0.26;89.88
19795;BME280;10057;59.402;17.866;2024-01-25T06:34:17;100617.81;;;0.28;89.78
19795;BME280;10057;59.402;17.866;2024-01-25T06:36:44;100601.28;;;0.24;89.78
19795;BME280;10057;59.402;17.866;2024-01-25T06:39:11;100608.22;;;0.25;89.85
19795;BME280;10057;59.402;17.866;2024-01-25T06:41:37;100609.94;;;0.23;89.71
19795;BME280;10057;59.402;17.866;2024-01-25T06:44:04;100610.81;;;0.22;89.72
19795;BME280;10057;59.402;17.866;2024-01-25T06:46:31;100618.63;;;0.20;89.77
19795;BME280;10057;59.402;17.866;2024-01-25T06:48:58;100622.13;;;0.21;90.26
19795;BME280;10057;59.402;17.866;2024-01-25T06:51:25;100630.81;;;0.23;90.07
19795;BME280;10057;59.402;17.866;2024-01-25T06:53:51;100637.81;;;0.24;89.94
19795;BME280;10057;59.402;17.866;2024-01-25T06:56:18;100662.16;;;0.26;90.20
19795;BME280;10057;59.402;17.866;2024-01-25T06:58:45;100673.47;;;0.27;90.13
19795;BME280;10057;59.402;17.866;2024-01-25T07:01:12;100666.50;;;0.26;89.75
19795;BME280;10057;59.402;17.866;2024-01-25T07:03:40;100684.78;;;0.24;89.95
19795;BME280;10057;59.402;17.866;2024-01-25T07:06:07;100684.75;;;0.22;89.75
19795;BME280;10057;59.402;17.866;2024-01-25T07:08:34;100687.34;;;0.19;89.80
19795;BME280;10057;59.402;17.866;2024-01-25T07:11:01;100674.31;;;0.18;89.84
19795;BME280;10057;59.402;17.866;2024-01-25T07:13:28;100691.69;;;0.19;89.85
19795;BME280;10057;59.402;17.866;2024-01-25T07:15:55;100714.28;;;0.17;89.88
19795;BME280;10057;59.402;17.866;2024-01-25T07:18:22;100699.50;;;0.16;90.14
19795;BME280;10057;59.402;17.866;2024-01-25T07:20:51;100696.91;;;0.14;90.25
19795;BME280;10057;59.402;17.866;2024-01-25T07:23:18;100710.81;;;0.15;89.85
19795;BME280;10057;59.402;17.866;2024-01-25T07:25:45;100713.44;;;0.16;90.09
19795;BME280;10057;59.402;17.866;2024-01-25T07:28:12;100724.72;;;0.17;90.01
19795;BME280;10057;59.402;17.866;2024-01-25T07:30:39;100730.00;;;0.21;90.12
19795;BME280;10057;59.402;17.866;2024-01-25T07:33:05;100730.84;;;0.19;89.89
19795;BME280;10057;59.402;17.866;2024-01-25T07:35:32;100749.97;;;0.19;90.08
19795;BME280;10057;59.402;17.866;2024-01-25T07:37:59;100749.94;;;0.16;90.00
19795;BME280;10057;59.402;17.866;2024-01-25T07:40:26;100755.19;;;0.15;89.69
19795;BME280;10057;59.402;17.866;2024-01-25T07:42:52;100764.72;;;0.11;89.75
19795;BME280;10057;59.402;17.866;2024-01-25T07:45:19;100764.72;;;0.11;89.83
19795;BME280;10057;59.402;17.866;2024-01-25T07:47:46;100769.94;;;0.13;89.99
19795;BME280;10057;59.402;17.866;2024-01-25T07:50:14;100775.19;;;0.16;89.96
19795;BME280;10057;59.402;17.866;2024-01-25T07:52:41;100781.25;;;0.16;90.06
19795;BME280;10057;59.402;17.866;2024-01-25T07:55:08;100795.19;;;0.15;89.90
19795;BME280;10057;59.402;17.866;2024-01-25T07:57:35;100791.69;;;0.16;90.04
19795;BME280;10057;59.402;17.866;2024-01-25T08:00:02;100801.25;;;0.16;89.95
19795;BME280;10057;59.402;17.866;2024-01-25T08:02:28;100808.22;;;0.17;89.99
19795;BME280;10057;59.402;17.866;2024-01-25T08:04:55;100819.53;;;0.20;90.13
19795;BME280;10057;59.402;17.866;2024-01-25T08:07:24;100815.22;;;0.19;90.19
19795;BME280;10057;59.402;17.866;2024-01-25T08:09:51;100832.59;;;0.19;89.91
19795;BME280;10057;59.402;17.866;2024-01-25T08:12:19;100829.13;;;0.20;89.92
19795;BME280;10057;59.402;17.866;2024-01-25T08:14:46;100822.16;;;0.19;89.80
19795;BME280;10057;59.402;17.866;2024-01-25T08:17:12;100856.97;;;0.18;90.04
19795;BME280;10057;59.402;17.866;2024-01-25T08:19:39;100844.75;;;0.17;90.00
19795;BME280;10057;59.402;17.866;2024-01-25T08:22:06;100849.97;;;0.17;89.99
19795;BME280;10057;59.402;17.866;2024-01-25T08:24:33;100870.00;;;0.19;90.02
19795;BME280;10057;59.402;17.866;2024-01-25T08:26:59;100876.09;;;0.20;90.12
19795;BME280;10057;59.402;17.866;2024-01-25T08:29:26;100881.31;;;0.20;90.19
19795;BME280;10057;59.402;17.866;2024-01-25T08:31:53;100889.16;;;0.21;90.00
19795;BME280;10057;59.402;17.866;2024-01-25T08:34:20;100892.63;;;0.22;90.08
19795;BME280;10057;59.402;17.866;2024-01-25T08:36:47;100897.88;;;0.25;89.96
19795;BME280;10057;59.402;17.866;2024-01-25T08:39:14;100909.19;;;0.24;90.01
19795;BME280;10057;59.402;17.866;2024-01-25T08:41:41;100906.59;;;0.24;89.62
19795;BME280;10057;59.402;17.866;2024-01-25T08:44:08;100904.84;;;0.26;89.96
19795;BME280;10057;59.402;17.866;2024-01-25T08:46:35;100923.09;;;0.23;90.15
19795;BME280;10057;59.402;17.866;2024-01-25T08:49:02;100931.81;;;0.25;89.99
19795;BME280;10057;59.402;17.866;2024-01-25T08:51:35;100933.53;;;0.23;89.85
19795;BME280;10057;59.402;17.866;2024-01-25T08:54:02;100940.50;;;0.24;89.67
19795;BME280;10057;59.402;17.866;2024-01-25T08:56:30;100948.34;;;0.24;89.80
19795;BME280;10057;59.402;17.866;2024-01-25T08:58:56;100957.03;;;0.26;89.94
19795;BME280;10057;59.402;17.866;2024-01-25T09:01:23;100959.69;;;0.29;90.27
19795;BME280;10057;59.402;17.866;2024-01-25T09:03:50;100971.88;;;0.33;90.15
19795;BME280;10057;59.402;17.866;2024-01-25T09:06:17;100972.75;;;0.32;89.95
19795;BME280;10057;59.402;17.866;2024-01-25T09:08:44;100962.28;;;0.31;90.10
19795;BME280;10057;59.402;17.866;2024-01-25T09:11:11;100979.72;;;0.33;89.81
19795;BME280;10057;59.402;17.866;2024-01-25T09:13:38;100977.06;;;0.30;89.79
19795;BME280;10057;59.402;17.866;2024-01-25T09:16:12;100976.22;;;0.30;89.62
19795;BME280;10057;59.402;17.866;2024-01-25T09:18:38;100979.66;;;0.27;89.65
19795;BME280;10057;59.402;17.866;2024-01-25T09:21:06;100977.03;;;0.27;89.90
19795;BME280;10057;59.402;17.866;2024-01-25T09:23:32;100982.28;;;0.29;89.78
19795;BME280;10057;59.402;17.866;2024-01-25T09:25:59;100980.56;;;0.28;89.97
19795;BME280;10057;59.402;17.866;2024-01-25T09:28:26;100997.94;;;0.27;89.73
19795;BME280;10057;59.402;17.866;2024-01-25T09:30:53;101002.31;;;0.28;89.76
19795;BME280;10057;59.402;17.866;2024-01-25T09:33:20;101005.75;;;0.26;89.78
19795;BME280;10057;59.402;17.866;2024-01-25T09:35:47;101026.63;;;0.26;89.74
19795;BME280;10057;59.402;17.866;2024-01-25T09:38:14;101029.25;;;0.27;89.91
19795;BME280;10057;59.402;17.866;2024-01-25T09:40:41;101023.16;;;0.25;89.88
19795;BME280;10057;59.402;17.866;2024-01-25T09:43:08;101024.91;;;0.25;89.69
19795;BME280;10057;59.402;17.866;2024-01-25T09:45:36;101037.91;;;0.23;90.02
19795;BME280;10057;59.402;17.866;2024-01-25T09:48:03;101033.53;;;0.20;89.59
19795;BME280;10057;59.402;17.866;2024-01-25T09:50:32;101043.13;;;0.23;89.69
19795;BME280;10057;59.402;17.866;2024-01-25T09:53:01;101040.53;;;0.21;89.55
19795;BME280;10057;59.402;17.866;2024-01-25T09:55:31;101048.34;;;0.23;89.68
19795;BME280;10057;59.402;17.866;2024-01-25T09:57:59;101059.66;;;0.22;89.63
19795;BME280;10057;59.402;17.866;2024-01-25T10:00:26;101070.06;;;0.20;89.44
19795;BME280;10057;59.402;17.866;2024-01-25T10:02:56;101078.75;;;0.18;89.58
19795;BME280;10057;59.402;17.866;2024-01-25T10:05:22;101076.97;;;0.17;89.58
19795;BME280;10057;59.402;17.866;2024-01-25T10:07:49;101092.63;;;0.15;89.51
19795;BME280;10057;59.402;17.866;2024-01-25T10:10:16;101083.94;;;0.15;89.52
19795;BME280;10057;59.402;17.866;2024-01-25T10:12:43;101098.69;;;0.13;89.57
19795;BME280;10057;59.402;17.866;2024-01-25T10:15:10;101103.00;;;0.09;89.42
19795;BME280;10057;59.402;17.866;2024-01-25T10:17:38;101104.75;;;0.09;89.43
19795;BME280;10057;59.402;17.866;2024-01-25T10:20:25;101091.66;;;0.06;89.36
19795;BME280;10057;59.402;17.866;2024-01-25T10:22:57;101105.56;;;0.05;89.63
19795;BME280;10057;59.402;17.866;2024-01-25T10:25:26;101115.09;;;0.03;89.49
19795;BME280;10057;59.402;17.866;2024-01-25T10:27:54;101122.94;;;0.03;89.57
19795;BME280;10057;59.402;17.866;2024-01-25T10:30:21;101131.63;;;0.03;89.60
19795;BME280;10057;59.402;17.866;2024-01-25T10:32:49;101133.34;;;0.03;89.53
19795;BME280;10057;59.402;17.866;2024-01-25T10:35:17;101142.97;;;0.05;89.56
19795;BME280;10057;59.402;17.866;2024-01-25T10:37:49;101138.66;;;0.07;89.82
19795;BME280;10057;59.402;17.866;2024-01-25T10:40:18;101147.38;;;0.11;90.24
19795;BME280;10057;59.402;17.866;2024-01-25T10:42:46;101143.13;;;0.19;89.92
19795;BME280;10057;59.402;17.866;2024-01-25T10:45:13;101151.88;;;0.21;89.79
19795;BME280;10057;59.402;17.866;2024-01-25T10:47:40;101144.91;;;0.23;89.97
19795;BME280;10057;59.402;17.866;2024-01-25T10:50:08;101157.97;;;0.23;89.80
19795;BME280;10057;59.402;17.866;2024-01-25T10:52:37;101155.34;;;0.23;89.70
19795;BME280;10057;59.402;17.866;2024-01-25T10:55:06;101166.63;;;0.20;89.61
19795;BME280;10057;59.402;17.866;2024-01-25T10:57:38;101183.97;;;0.17;89.22
19795;BME280;10057;59.402;17.866;2024-01-25T11:00:07;101187.41;;;0.11;89.25
19795;BME280;10057;59.402;17.866;2024-01-25T11:02:36;101185.63;;;0.07;89.59
19795;BME280;10057;59.402;17.866;2024-01-25T11:05:14;101189.94;;;0.07;89.50
19795;BME280;10057;59.402;17.866;2024-01-25T11:07:46;101188.22;;;0.07;89.39
19795;BME280;10057;59.402;17.866;2024-01-25T11:10:21;101193.44;;;0.07;89.54
19795;BME280;10057;59.402;17.866;2024-01-25T11:12:51;101191.72;;;0.08;89.52
19795;BME280;10057;59.402;17.866;2024-01-25T11:15:23;101200.38;;;0.07;89.70
19795;BME280;10057;59.402;17.866;2024-01-25T11:17:52;101213.41;;;0.07;89.51
19795;BME280;10057;59.402;17.866;2024-01-25T11:20:21;101208.19;;;0.04;89.61
19795;BME280;10057;59.402;17.866;2024-01-25T11:22:51;101222.06;;;0.01;89.34
19795;BME280;10057;59.402;17.866;2024-01-25T11:25:22;101215.97;;;0.01;89.23
19795;BME280;10057;59.402;17.866;2024-01-25T11:27:49;101226.38;;;-0.01;89.36
19795;BME280;10057;59.402;17.866;2024-01-25T11:30:20;101234.19;;;-0.03;89.51
19795;BME280;10057;59.402;17.866;2024-01-25T11:32:47;101245.44;;;-0.04;89.36
19795;BME280;10057;59.402;17.866;2024-01-25T11:35:15;101235.88;;;-0.05;89.19
19795;BME280;10057;59.402;17.866;2024-01-25T11:37:47;101253.25;;;-0.07;89.20
19795;BME280;10057;59.402;17.866;2024-01-25T11:40:15;101248.00;;;-0.08;89.42
19795;BME280;10057;59.402;17.866;2024-01-25T11:42:45;101255.00;;;-0.06;89.57
19795;BME280;10057;59.402;17.866;2024-01-25T11:45:12;101261.09;;;-0.04;89.74
19795;BME280;10057;59.402;17.866;2024-01-25T11:47:39;101257.66;;;-0.03;89.65
19795;BME280;10057;59.402;17.866;2024-01-25T11:50:06;101262.06;;;0.02;89.92
19795;BME280;10057;59.402;17.866;2024-01-25T11:52:34;101265.59;;;0.05;89.66
19795;BME280;10057;59.402;17.866;2024-01-25T11:55:02;101273.47;;;0.10;89.71
19795;BME280;10057;59.402;17.866;2024-01-25T11:57:35;101276.13;;;0.13;89.89
19795;BME280;10057;59.402;17.866;2024-01-25T12:00:07;101276.13;;;0.13;89.52
19795;BME280;10057;59.402;17.866;2024-01-25T12:02:36;101277.91;;;0.15;90.04
19795;BME280;10057;59.402;17.866;2024-01-25T12:05:05;101288.34;;;0.17;89.85
19795;BME280;10057;59.402;17.866;2024-01-25T12:07:33;101301.41;;;0.17;89.31
19795;BME280;10057;59.402;17.866;2024-01-25T12:10:04;101297.09;;;0.19;89.37
19795;BME280;10057;59.402;17.866;2024-01-25T12:12:32;101298.78;;;0.17;89.17
19795;BME280;10057;59.402;17.866;2024-01-25T12:14:59;101297.97;;;0.18;89.50
19795;BME280;10057;59.402;17.866;2024-01-25T12:17:27;101304.91;;;0.19;89.40
19795;BME280;10057;59.402;17.866;2024-01-25T12:19:59;101315.34;;;0.17;89.14
19795;BME280;10057;59.402;17.866;2024-01-25T12:22:29;101316.19;;;0.16;89.17
19795;BME280;10057;59.402;17.866;2024-01-25T12:25:00;101326.63;;;0.15;89.19
19795;BME280;10057;59.402;17.866;2024-01-25T12:27:28;101322.25;;;0.14;89.08
19795;BME280;10057;59.402;17.866;2024-01-25T12:29:57;101325.69;;;0.13;89.32
19795;BME280;10057;59.402;17.866;2024-01-25T12:32:24;101333.56;;;0.14;89.14
19795;BME280;10057;59.402;17.866;2024-01-25T12:34:58;101337.06;;;0.15;88.94
19795;BME280;10057;59.402;17.866;2024-01-25T12:37:27;101340.53;;;0.15;88.99
19795;BME280;10057;59.402;17.866;2024-01-25T12:39:54;101348.31;;;0.12;89.03
19795;BME280;10057;59.402;17.866;2024-01-25T12:42:22;101345.69;;;0.11;88.83
19795;BME280;10057;59.402;17.866;2024-01-25T12:44:52;101355.22;;;0.07;88.63
19795;BME280;10057;59.402;17.866;2024-01-25T12:47:20;101360.38;;;0.06;88.79
19795;BME280;10057;59.402;17.866;2024-01-25T12:49:47;101369.09;;;0.05;88.85
19795;BME280;10057;59.402;17.866;2024-01-25T12:52:15;101371.63;;;0.02;88.65
19795;BME280;10057;59.402;17.866;2024-01-25T12:54:42;101369.03;;;0.02;88.93